Observation data for Guthrie on 01/17/2021      Previous  Date  Next       Current Mesonet Observations  Soil Data  Daily Summary Page  Observations in Plain Language
KPFS 170600Z 30004KT 04/M07 A3007 RMK A01 T00411073  RH  043%=      5-min Rain = 0
KPFS 170605Z 29003KT 05/M07 A3007 RMK A01 T00451074  RH  041%=      5-min Rain = 0
KPFS 170610Z 26002KT 05/M08 A3007 RMK A01 T00461076  RH  041%=      5-min Rain = 0
KPFS 170615Z 26003KT 05/M08 A3007 RMK A01 T00481077  RH  040%=      5-min Rain = 0
KPFS 170620Z 28004KT 05/M08 A3007 RMK A01 T00501078  RH  039%=      5-min Rain = 0
KPFS 170625Z 31004KT 05/M08 A3007 RMK A01 T00471077  RH  040%=      5-min Rain = 0
KPFS 170630Z 30003KT 04/M08 A3007 RMK A01 T00431077  RH  041%=      5-min Rain = 0
KPFS 170635Z 32003KT 04/M08 A3007 RMK A01 T00441077  RH  041%=      5-min Rain = 0
KPFS 170640Z 32005KT 04/M07 A3008 RMK A01 T00381074  RH  044%=      5-min Rain = 0
KPFS 170645Z 31005KT 03/M07 A3008 RMK A01 T00341072  RH  046%=      5-min Rain = 0
KPFS 170650Z 31004KT 03/M07 A3008 RMK A01 T00331073  RH  046%=      5-min Rain = 0
KPFS 170655Z 31005KT 04/M07 A3009 RMK A01 T00351074  RH  045%=      5-min Rain = 0
KPFS 170700Z 31005KT 04/M07 A3009 RMK A01 T00361073  RH  045%=      5-min Rain = 0
KPFS 170705Z 31005KT 04/M08 A3009 RMK A01 T00371075  RH  044%=      5-min Rain = 0
KPFS 170710Z 31006KT 04/M08 A3009 RMK A01 T00381075  RH  044%=      5-min Rain = 0
KPFS 170715Z 31005KT 04/M08 A3009 RMK A01 T00391075  RH  043%=      5-min Rain = 0
KPFS 170720Z 32005KT 04/M08 A3009 RMK A01 T00401075  RH  043%=      5-min Rain = 0
KPFS 170725Z 31004KT 04/M08 A3009 RMK A01 T00401075  RH  043%=      5-min Rain = 0
KPFS 170730Z 31005KT 04/M08 A3009 RMK A01 T00421075  RH  042%=      5-min Rain = 0
KPFS 170735Z 32004KT 04/M08 A3009 RMK A01 T00421075  RH  042%=      5-min Rain = 0
KPFS 170740Z 32004KT 04/M08 A3009 RMK A01 T00411075  RH  043%=      5-min Rain = 0
KPFS 170745Z 31003KT 04/M08 A3009 RMK A01 T00411075  RH  043%=      5-min Rain = 0
KPFS 170750Z 29003KT 04/M08 A3009 RMK A01 T00421076  RH  042%=      5-min Rain = 0
KPFS 170755Z 29002KT 05/M08 A3009 RMK A01 T00461077  RH  040%=      5-min Rain = 0
KPFS 170800Z 28001KT 05/M08 A3009 RMK A01 T00491079  RH  039%=      5-min Rain = 0
KPFS 170805Z 28002KT 05/M08 A3009 RMK A01 T00511080  RH  038%=      5-min Rain = 0
KPFS 170810Z 31002KT 05/M08 A3009 RMK A01 T00521079  RH  038%=      5-min Rain = 0
KPFS 170815Z 30002KT 05/M08 A3009 RMK A01 T00511079  RH  038%=      5-min Rain = 0
KPFS 170820Z 30002KT 05/M08 A3009 RMK A01 T00491079  RH  039%=      5-min Rain = 0
KPFS 170825Z 30002KT 05/M08 A3009 RMK A01 T00481079  RH  039%=      5-min Rain = 0
KPFS 170830Z 32002KT 05/M08 A3009 RMK A01 T00481079  RH  039%=      5-min Rain = 0
KPFS 170835Z 31002KT 04/M08 A3009 RMK A01 T00441078  RH  040%=      5-min Rain = 0
KPFS 170840Z 30003KT 04/M08 A3009 RMK A01 T00441078  RH  041%=      5-min Rain = 0
KPFS 170845Z 29002KT 05/M08 A3009 RMK A01 T00451078  RH  040%=      5-min Rain = 0
KPFS 170850Z 29002KT 05/M08 A3009 RMK A01 T00451078  RH  040%=      5-min Rain = 0
KPFS 170855Z 30002KT 04/M08 A3009 RMK A01 T00421077  RH  041%=      5-min Rain = 0
KPFS 170900Z 32002KT 04/M08 A3009 RMK A01 T00401077  RH  042%=      5-min Rain = 0
KPFS 170905Z 32004KT 04/M08 A3009 RMK A01 T00391077  RH  042%=      5-min Rain = 0
KPFS 170910Z 30004KT 04/M08 A3009 RMK A01 T00391076  RH  043%=      5-min Rain = 0
KPFS 170915Z 30003KT 04/M08 A3009 RMK A01 T00371076  RH  043%=      5-min Rain = 0
KPFS 170920Z 30004KT 04/M08 A3009 RMK A01 T00361076  RH  044%=      5-min Rain = 0
KPFS 170925Z 31004KT 04/M08 A3009 RMK A01 T00351076  RH  044%=      5-min Rain = 0
KPFS 170930Z 31004KT 03/M08 A301 RMK A01 T00331076  RH  045%=      5-min Rain = 0
KPFS 170935Z 31004KT 03/M08 A301 RMK A01 T00331076  RH  045%=      5-min Rain = 0
KPFS 170940Z 30004KT 03/M08 A301 RMK A01 T00331076  RH  045%=      5-min Rain = 0
KPFS 170945Z 31003KT 03/M08 A301 RMK A01 T00341076  RH  044%=      5-min Rain = 0
KPFS 170950Z 32003KT 03/M08 A301 RMK A01 T00341076  RH  044%=      5-min Rain = 0
KPFS 170955Z 33004KT 03/M08 A301 RMK A01 T00331076  RH  045%=      5-min Rain = 0
KPFS 171000Z 34004KT 03/M07 A301 RMK A01 T00311073  RH  046%=      5-min Rain = 0
KPFS 171005Z 34005KT 04/M07 A301 RMK A01 T00371066  RH  047%=      5-min Rain = 0
KPFS 171010Z 35006KT 04/M06 A301 RMK A01 T00391061  RH  048%=      5-min Rain = 0
KPFS 171015Z 00007KT 04/M06 A301 RMK A01 T00391057  RH  050%=      5-min Rain = 0
KPFS 171020Z 01007KT 04/M06 A301 RMK A01 T00361056  RH  051%=      5-min Rain = 0
KPFS 171025Z 01008KT 04/M05 A3011 RMK A01 T00361054  RH  052%=      5-min Rain = 0
KPFS 171030Z 01009KT 04/M05 A3011 RMK A01 T00371051  RH  053%=      5-min Rain = 0
KPFS 171035Z 01009KT 04/M05 A3011 RMK A01 T00381049  RH  053%=      5-min Rain = 0
KPFS 171040Z 01008KT 04/M05 A301 RMK A01 T00381049  RH  053%=      5-min Rain = 0
KPFS 171045Z 01007KT 04/M05 A3011 RMK A01 T00381048  RH  054%=      5-min Rain = 0
KPFS 171050Z 01007KT 04/M05 A301 RMK A01 T00351048  RH  055%=      5-min Rain = 0
KPFS 171055Z 00006KT 03/M05 A3011 RMK A01 T00331048  RH  055%=      5-min Rain = 0
KPFS 171100Z 00005KT 03/M05 A3011 RMK A01 T00301048  RH  056%=      5-min Rain = 0
KPFS 171105Z 00006KT 03/M05 A3011 RMK A01 T00301048  RH  057%=      5-min Rain = 0
KPFS 171110Z 00006KT 03/M05 A3011 RMK A01 T00301048  RH  057%=      5-min Rain = 0
KPFS 171115Z 00006KT 03/M05 A301 RMK A01 T00321048  RH  056%=      5-min Rain = 0
KPFS 171120Z 00006KT 03/M05 A301 RMK A01 T00331048  RH  056%=      5-min Rain = 0
KPFS 171125Z 36006KT 03/M05 A301 RMK A01 T00331048  RH  055%=      5-min Rain = 0
KPFS 171130Z 36006KT 03/M05 A3011 RMK A01 T00311049  RH  056%=      5-min Rain = 0
KPFS 171135Z 35006KT 03/M05 A3011 RMK A01 T00301049  RH  056%=      5-min Rain = 0
KPFS 171140Z 35005KT 03/M05 A3011 RMK A01 T00311049  RH  056%=      5-min Rain = 0
KPFS 171145Z 35004KT 03/M05 A3011 RMK A01 T00311049  RH  056%=      5-min Rain = 0
KPFS 171150Z 35003KT 03/M05 A3012 RMK A01 T00331050  RH  055%=      5-min Rain = 0
KPFS 171155Z 35004KT 03/M05 A3012 RMK A01 T00341050  RH  055%=      5-min Rain = 0
KPFS 171200Z 35005KT 04/M05 A3012 RMK A01 T00391049  RH  053%=      5-min Rain = 0
KPFS 171205Z 35004KT 04/M05 A3013 RMK A01 T00371050  RH  053%=      5-min Rain = 0
KPFS 171210Z 34004KT 04/M05 A3013 RMK A01 T00351050  RH  054%=      5-min Rain = 0
KPFS 171215Z 34003KT 03/M05 A3013 RMK A01 T00331051  RH  054%=      5-min Rain = 0
KPFS 171220Z 34003KT 03/M05 A3013 RMK A01 T00331052  RH  054%=      5-min Rain = 0
KPFS 171225Z 32002KT 03/M05 A3013 RMK A01 T00331052  RH  054%=      5-min Rain = 0
KPFS 171230Z 32002KT 03/M05 A3014 RMK A01 T00341052  RH  053%=      5-min Rain = 0
KPFS 171235Z 32001KT 03/M05 A3014 RMK A01 T00341053  RH  053%=      5-min Rain = 0
KPFS 171240Z 33001KT 03/M05 A3014 RMK A01 T00331054  RH  053%=      5-min Rain = 0
KPFS 171245Z 33001KT 03/M05 A3014 RMK A01 T00331054  RH  053%=      5-min Rain = 0
KPFS 171250Z 33002KT 03/M05 A3014 RMK A01 T00341054  RH  053%=      5-min Rain = 0
KPFS 171255Z 33002KT 04/M05 A3014 RMK A01 T00351054  RH  052%=      5-min Rain = 0
KPFS 171300Z 34002KT 04/M06 A3014 RMK A01 T00351055  RH  052%=      5-min Rain = 0
KPFS 171305Z 33001KT 03/M06 A3014 RMK A01 T00341055  RH  052%=      5-min Rain = 0
KPFS 171310Z 33001KT 03/M06 A3015 RMK A01 T00321056  RH  053%=      5-min Rain = 0
KPFS 171315Z 34001KT 03/M06 A3015 RMK A01 T00301056  RH  053%=      5-min Rain = 0
KPFS 171320Z 34002KT 03/M06 A3015 RMK A01 T00311055  RH  053%=      5-min Rain = 0
KPFS 171325Z 33001KT 03/M06 A3015 RMK A01 T00331055  RH  053%=      5-min Rain = 0
KPFS 171330Z 32002KT 03/M05 A3016 RMK A01 T00311054  RH  054%=      5-min Rain = 0
KPFS 171335Z 31001KT 03/M05 A3016 RMK A01 T00251054  RH  056%=      5-min Rain = 0
KPFS 171340Z 33002KT 02/M05 A3015 RMK A01 T00231054  RH  057%=      5-min Rain = 0
KPFS 171345Z 32001KT 03/M05 A3015 RMK A01 T00261054  RH  056%=      5-min Rain = 0
KPFS 171350Z 33001KT 03/M05 A3015 RMK A01 T00261054  RH  056%=      5-min Rain = 0
KPFS 171355Z 34001KT 03/M05 A3015 RMK A01 T00261054  RH  056%=      5-min Rain = 0
KPFS 171400Z 32001KT 03/M05 A3015 RMK A01 T00281054  RH  055%=      5-min Rain = 0
KPFS 171405Z 31002KT 03/M05 A3015 RMK A01 T00301054  RH  054%=      5-min Rain = 0
KPFS 171410Z 31002KT 03/M05 A3016 RMK A01 T00301054  RH  054%=      5-min Rain = 0
KPFS 171415Z 31003KT 03/M05 A3016 RMK A01 T00281054  RH  055%=      5-min Rain = 0
KPFS 171420Z 32003KT 03/M05 A3016 RMK A01 T00261053  RH  056%=      5-min Rain = 0
KPFS 171425Z 33003KT 02/M05 A3016 RMK A01 T00241051  RH  057%=      5-min Rain = 0
KPFS 171430Z 34003KT 03/M05 A3017 RMK A01 T00251051  RH  057%=      5-min Rain = 0
KPFS 171435Z 34003KT 03/M05 A3017 RMK A01 T00271050  RH  057%=      5-min Rain = 0
KPFS 171440Z 35003KT 03/M05 A3017 RMK A01 T00261048  RH  058%=      5-min Rain = 0
KPFS 171445Z 35003KT 03/M05 A3017 RMK A01 T00281047  RH  058%=      5-min Rain = 0
KPFS 171450Z 34003KT 03/M05 A3017 RMK A01 T00301047  RH  057%=      5-min Rain = 0
KPFS 171455Z 35002KT 03/M05 A3017 RMK A01 T00321047  RH  056%=      5-min Rain = 0
KPFS 171500Z 35002KT 03/M05 A3017 RMK A01 T00341047  RH  056%=      5-min Rain = 0
KPFS 171505Z 35002KT 04/M05 A3017 RMK A01 T00361047  RH  055%=      5-min Rain = 0
KPFS 171510Z 35002KT 04/M05 A3018 RMK A01 T00381047  RH  054%=      5-min Rain = 0
KPFS 171515Z 35001KT 04/M05 A3018 RMK A01 T00401046  RH  054%=      5-min Rain = 0
KPFS 171520Z 34000KT 04/M04 A3018 RMK A01 T00431041  RH  055%=      5-min Rain = 0
KPFS 171525Z 27001KT 05/M04 A3018 RMK A01 T00461044  RH  052%=      5-min Rain = 0
KPFS 171530Z 26001KT 05/M04 A3019 RMK A01 T00481042  RH  052%=      5-min Rain = 0
KPFS 171535Z 29001KT 05/M04 A3019 RMK A01 T00491042  RH  052%=      5-min Rain = 0
KPFS 171540Z 32001KT 05/M04 A3019 RMK A01 T00511040  RH  052%=      5-min Rain = 0
KPFS 171545Z 33001KT 05/M04 A3019 RMK A01 T00541038  RH  052%=      5-min Rain = 0
KPFS 171550Z 35002KT 06/M04 A302 RMK A01 T00571038  RH  051%=      5-min Rain = 0
KPFS 171555Z 35003KT 06/M04 A302 RMK A01 T00571037  RH  051%=      5-min Rain = 0
KPFS 171600Z 36002KT 06/M04 A302 RMK A01 T00561038  RH  051%=      5-min Rain = 0
KPFS 171605Z 00003KT 06/M04 A302 RMK A01 T00581036  RH  051%=      5-min Rain = 0
KPFS 171610Z 01003KT 06/M04 A302 RMK A01 T00601035  RH  051%=      5-min Rain = 0
KPFS 171615Z 00004KT 06/M03 A302 RMK A01 T00631034  RH  050%=      5-min Rain = 0
KPFS 171620Z 00005KT 07/M03 A302 RMK A01 T00691034  RH  048%=      5-min Rain = 0
KPFS 171625Z 00006KT 07/M03 A302 RMK A01 T00741033  RH  047%=      5-min Rain = 0
KPFS 171630Z 00006KT 08/M03 A302 RMK A01 T00781033  RH  046%=      5-min Rain = 0
KPFS 171635Z 35006KT 08/M03 A302 RMK A01 T00831034  RH  044%=      5-min Rain = 0
KPFS 171640Z 35007KT 09/M04 A302 RMK A01 T00861039  RH  041%=      5-min Rain = 0
KPFS 171645Z 36008KT 09/M04 A302 RMK A01 T00891041  RH  040%=      5-min Rain = 0
KPFS 171650Z 01008KT 09/M05 A3021 RMK A01 T00911047  RH  037%=      5-min Rain = 0
KPFS 171655Z 36009KT 09/M05 A302 RMK A01 T00911051  RH  037%=      5-min Rain = 0
KPFS 171700Z 36008KT 09/M05 A302 RMK A01 T00911051  RH  036%=      5-min Rain = 0
KPFS 171705Z 00006KT 09/M05 A302 RMK A01 T00941050  RH  036%=      5-min Rain = 0
KPFS 171710Z 01006KT 09/M05 A302 RMK A01 T00941051  RH  036%=      5-min Rain = 0
KPFS 171715Z 01007KT 10/M05 A302 RMK A01 T00971054  RH  034%=      5-min Rain = 0
KPFS 171720Z 01007KT 10/M06 A302 RMK A01 T00991057  RH  033%=      5-min Rain = 0
KPFS 171725Z 00007KT 10/M06 A302 RMK A01 T01001056  RH  033%=      5-min Rain = 0
KPFS 171730Z 36007KT 10/M06 A3019 RMK A01 T01011056  RH  033%=      5-min Rain = 0
KPFS 171735Z 02008KT 10/M06 A3019 RMK A01 T01021055  RH  033%=      5-min Rain = 0
KPFS 171740Z 01008KT 11/M05 A3019 RMK A01 T01051053  RH  033%=      5-min Rain = 0
KPFS 171745Z 00008KT 11/M05 A3019 RMK A01 T01071051  RH  033%=      5-min Rain = 0
KPFS 171750Z 01008KT 11/M05 A3019 RMK A01 T01071053  RH  032%=      5-min Rain = 0
KPFS 171755Z 01008KT 11/M05 A3018 RMK A01 T01081053  RH  032%=      5-min Rain = 0
KPFS 171800Z 00009KT 11/M05 A3018 RMK A01 T01081052  RH  032%=      5-min Rain = 0
KPFS 171805Z 36008KT 11/M05 A3017 RMK A01 T01091050  RH  033%=      5-min Rain = 0
KPFS 171810Z 36009KT 11/M05 A3017 RMK A01 T01081052  RH  032%=      5-min Rain = 0
KPFS 171815Z 00009KT 11/M05 A3016 RMK A01 T01081053  RH  032%=      5-min Rain = 0
KPFS 171820Z 01007KT 11/M05 A3016 RMK A01 T01131051  RH  031%=      5-min Rain = 0
KPFS 171825Z 35008KT 11/M05 A3016 RMK A01 T01111051  RH  032%=      5-min Rain = 0
KPFS 171830Z 36009G14KT 11/M05 A3015 RMK A01 T01141053  RH  031%=      5-min Rain = 0
KPFS 171835Z 00008KT 11/M05 A3015 RMK A01 T01141052  RH  031%=      5-min Rain = 0
KPFS 171840Z 00008KT 11/M05 A3015 RMK A01 T01141053  RH  031%=      5-min Rain = 0
KPFS 171845Z 36007G12KT 12/M05 A3015 RMK A01 T01151054  RH  030%=      5-min Rain = 0
KPFS 171850Z 01007G12KT 12/M06 A3014 RMK A01 T01161056  RH  029%=      5-min Rain = 0
KPFS 171855Z 01008G14KT 12/M06 A3014 RMK A01 T01181056  RH  029%=      5-min Rain = 0
KPFS 171900Z 01006G11KT 12/M06 A3014 RMK A01 T01161057  RH  029%=      5-min Rain = 0
KPFS 171905Z 36006KT 12/M06 A3014 RMK A01 T01191056  RH  029%=      5-min Rain = 0
KPFS 171910Z 00008KT 12/M06 A3014 RMK A01 T01181055  RH  029%=      5-min Rain = 0
KPFS 171915Z 36004KT 12/M06 A3014 RMK A01 T01161057  RH  029%=      5-min Rain = 0
KPFS 171920Z 36005KT 12/M06 A3013 RMK A01 T01221055  RH  029%=      5-min Rain = 0
KPFS 171925Z 02007KT 12/M06 A3013 RMK A01 T01231057  RH  028%=      5-min Rain = 0
KPFS 171930Z 00004KT 12/M06 A3013 RMK A01 T01241057  RH  028%=      5-min Rain = 0
KPFS 171935Z 34005KT 13/M06 A3012 RMK A01 T01261057  RH  028%=      5-min Rain = 0
KPFS 171940Z 01005KT 12/M06 A3012 RMK A01 T01211062  RH  027%=      5-min Rain = 0
KPFS 171945Z 04004KT 12/M06 A3011 RMK A01 T01231062  RH  027%=      5-min Rain = 0
KPFS 171950Z 36003KT 12/M06 A3011 RMK A01 T01191063  RH  027%=      5-min Rain = 0
KPFS 171955Z 01004KT 12/M06 A301 RMK A01 T01221064  RH  027%=      5-min Rain = 0
KPFS 172000Z 35006G11KT 13/M06 A3011 RMK A01 T01251062  RH  027%=      5-min Rain = 0
KPFS 172005Z 34006KT 12/M07 A3011 RMK A01 T01231066  RH  026%=      5-min Rain = 0
KPFS 172010Z 34004KT 12/M07 A301 RMK A01 T01221066  RH  026%=      5-min Rain = 0
KPFS 172015Z 01005KT 12/M07 A301 RMK A01 T01241065  RH  026%=      5-min Rain = 0
KPFS 172020Z 00004KT 13/M07 A3011 RMK A01 T01261066  RH  026%=      5-min Rain = 0
KPFS 172025Z 00004KT 13/M07 A3011 RMK A01 T01291065  RH  025%=      5-min Rain = 0
KPFS 172030Z 35003KT 13/M07 A301 RMK A01 T01261068  RH  025%=      5-min Rain = 0
KPFS 172035Z 02004KT 13/M07 A3011 RMK A01 T01301067  RH  025%=      5-min Rain = 0
KPFS 172040Z 03003KT 13/M07 A3011 RMK A01 T01321069  RH  024%=      5-min Rain = 0
KPFS 172045Z 03001KT 13/M07 A301 RMK A01 T01321069  RH  024%=      5-min Rain = 0
KPFS 172050Z 02003KT 13/M07 A301 RMK A01 T01311069  RH  024%=      5-min Rain = 0
KPFS 172055Z 05004KT 13/M07 A301 RMK A01 T01321067  RH  024%=      5-min Rain = 0
KPFS 172100Z 09005KT 13/M07 A301 RMK A01 T01321067  RH  024%=      5-min Rain = 0
KPFS 172105Z 04003KT 13/M07 A301 RMK A01 T01311068  RH  024%=      5-min Rain = 0
KPFS 172110Z 04006KT 13/M07 A301 RMK A01 T01341066  RH  024%=      5-min Rain = 0
KPFS 172115Z 05004G9KT 13/M07 A301 RMK A01 T01311069  RH  024%=      5-min Rain = 0
KPFS 172120Z 03006KT 13/M07 A301 RMK A01 T01331068  RH  024%=      5-min Rain = 0
KPFS 172125Z 35005KT 13/M07 A301 RMK A01 T01301072  RH  024%=      5-min Rain = 0
KPFS 172130Z 34004KT 13/M07 A301 RMK A01 T01261072  RH  024%=      5-min Rain = 0
KPFS 172135Z 01004KT 13/M07 A301 RMK A01 T01311070  RH  024%=      5-min Rain = 0
KPFS 172140Z 01005KT 13/M07 A301 RMK A01 T01311072  RH  024%=      5-min Rain = 0
KPFS 172145Z 34004KT 13/M07 A301 RMK A01 T01271071  RH  024%=      5-min Rain = 0
KPFS 172150Z 33004KT 13/M07 A301 RMK A01 T01271074  RH  024%=      5-min Rain = 0
KPFS 172155Z 33003KT 13/M08 A301 RMK A01 T01251075  RH  024%=      5-min Rain = 0
KPFS 172200Z 01005KT 13/M07 A301 RMK A01 T01291072  RH  024%=      5-min Rain = 0
KPFS 172205Z 35002KT 13/M08 A301 RMK A01 T01291075  RH  023%=      5-min Rain = 0
KPFS 172210Z 01004KT 13/M07 A3009 RMK A01 T01291073  RH  024%=      5-min Rain = 0
KPFS 172215Z 36004KT 13/M07 A3009 RMK A01 T01281072  RH  024%=      5-min Rain = 0
KPFS 172220Z 35004KT 13/M07 A3009 RMK A01 T01281073  RH  024%=      5-min Rain = 0
KPFS 172225Z 01003KT 13/M08 A3009 RMK A01 T01261075  RH  024%=      5-min Rain = 0
KPFS 172230Z 04002KT 13/M07 A3009 RMK A01 T01261073  RH  024%=      5-min Rain = 0
KPFS 172235Z 35003KT 13/M08 A3009 RMK A01 T01261075  RH  024%=      5-min Rain = 0
KPFS 172240Z 32002KT 13/M07 A3009 RMK A01 T01261073  RH  024%=      5-min Rain = 0
KPFS 172245Z 02002KT 13/M07 A3009 RMK A01 T01271072  RH  024%=      5-min Rain = 0
KPFS 172250Z 04002KT 13/M07 A3009 RMK A01 T01281073  RH  024%=      5-min Rain = 0
KPFS 172255Z 05002KT 13/M07 A3009 RMK A01 T01271073  RH  024%=      5-min Rain = 0
KPFS 172300Z 05002KT 13/M07 A3008 RMK A01 T01261074  RH  024%=      5-min Rain = 0
KPFS 172305Z 04002KT 13/M07 A3008 RMK A01 T01251073  RH  024%=      5-min Rain = 0
KPFS 172310Z 03002KT 12/M07 A3008 RMK A01 T01231073  RH  025%=      5-min Rain = 0
KPFS 172315Z 03002KT 12/M07 A3008 RMK A01 T01211072  RH  025%=      5-min Rain = 0
KPFS 172320Z 03000KT 12/M07 A3009 RMK A01 T01201072  RH  026%=      5-min Rain = 0
KPFS 172325Z 13001KT 12/M07 A3008 RMK A01 T01221069  RH  026%=      5-min Rain = 0
KPFS 172330Z 11001KT 12/M07 A3008 RMK A01 T01201070  RH  026%=      5-min Rain = 0
KPFS 172335Z 14002KT 12/M07 A3008 RMK A01 T01191066  RH  027%=      5-min Rain = 0
KPFS 172340Z 11003KT 12/M06 A3008 RMK A01 T01171063  RH  028%=      5-min Rain = 0
KPFS 172345Z 11003KT 11/M06 A3007 RMK A01 T01121064  RH  029%=      5-min Rain = 0
KPFS 172350Z 11003KT 11/M06 A3007 RMK A01 T01081063  RH  030%=      5-min Rain = 0
KPFS 172355Z 11004KT 10/M06 A3007 RMK A01 T01031064  RH  030%=      5-min Rain = 0
KPFS 180000Z 11004KT 10/M07 A3007 RMK A01 T01001066  RH  030%=      5-min Rain = 0
KPFS 180005Z 11004KT 10/M07 A3007 RMK A01 T00981067  RH  031%=      5-min Rain = 0
KPFS 180010Z 11004KT 10/M07 A3008 RMK A01 T00981069  RH  030%=      5-min Rain = 0
KPFS 180015Z 12005KT 10/M07 A3008 RMK A01 T00971068  RH  031%=      5-min Rain = 0
KPFS 180020Z 13005KT 10/M07 A3008 RMK A01 T00951067  RH  031%=      5-min Rain = 0
KPFS 180025Z 12004KT 10/M07 A3008 RMK A01 T00951068  RH  031%=      5-min Rain = 0
KPFS 180030Z 13004KT 09/M07 A3008 RMK A01 T00941068  RH  031%=      5-min Rain = 0
KPFS 180035Z 13005KT 09/M07 A3008 RMK A01 T00921067  RH  032%=      5-min Rain = 0
KPFS 180040Z 13005KT 09/M07 A3008 RMK A01 T00901065  RH  033%=      5-min Rain = 0
KPFS 180045Z 13005KT 09/M07 A3008 RMK A01 T00881065  RH  033%=      5-min Rain = 0
KPFS 180050Z 13005KT 09/M07 A3009 RMK A01 T00881065  RH  033%=      5-min Rain = 0
KPFS 180055Z 13006KT 09/M07 A3009 RMK A01 T00901066  RH  033%=      5-min Rain = 0
KPFS 180100Z 14006KT 08/M06 A3009 RMK A01 T00831063  RH  035%=      5-min Rain = 0
KPFS 180105Z 15006KT 08/M06 A3009 RMK A01 T00791063  RH  036%=      5-min Rain = 0
KPFS 180110Z 16005KT 08/M06 A3009 RMK A01 T00751064  RH  037%=      5-min Rain = 0
KPFS 180115Z 16005KT 07/M06 A3009 RMK A01 T00721063  RH  037%=      5-min Rain = 0
KPFS 180120Z 17004KT 07/M06 A3009 RMK A01 T00691063  RH  038%=      5-min Rain = 0
KPFS 180125Z 16005KT 07/M06 A3009 RMK A01 T00701063  RH  038%=      5-min Rain = 0
KPFS 180130Z 17005KT 07/M06 A3009 RMK A01 T00701063  RH  038%=      5-min Rain = 0
KPFS 180135Z 17005KT 07/M06 A3008 RMK A01 T00661063  RH  039%=      5-min Rain = 0
KPFS 180140Z 18005KT 06/M06 A3008 RMK A01 T00641064  RH  040%=      5-min Rain = 0
KPFS 180145Z 18004KT 06/M06 A3008 RMK A01 T00591061  RH  042%=      5-min Rain = 0
KPFS 180150Z 17004KT 06/M06 A3008 RMK A01 T00551060  RH  043%=      5-min Rain = 0
KPFS 180155Z 17005KT 06/M06 A3008 RMK A01 T00551060  RH  043%=      5-min Rain = 0
KPFS 180200Z 18005KT 05/M06 A3008 RMK A01 T00541059  RH  044%=      5-min Rain = 0
KPFS 180205Z 18004KT 05/M06 A3008 RMK A01 T00531059  RH  044%=      5-min Rain = 0
KPFS 180210Z 17005KT 05/M06 A3008 RMK A01 T00501059  RH  045%=      5-min Rain = 0
KPFS 180215Z 15007KT 05/M06 A3008 RMK A01 T00471057  RH  047%=      5-min Rain = 0
KPFS 180220Z 16005KT 04/M06 A3008 RMK A01 T00441056  RH  048%=      5-min Rain = 0
KPFS 180225Z 18004KT 05/M06 A3007 RMK A01 T00461057  RH  047%=      5-min Rain = 0
KPFS 180230Z 16004KT 05/M06 A3007 RMK A01 T00481058  RH  046%=      5-min Rain = 0
KPFS 180235Z 15007KT 05/M06 A3007 RMK A01 T00491056  RH  046%=      5-min Rain = 0
KPFS 180240Z 17004KT 05/M06 A3007 RMK A01 T00481056  RH  047%=      5-min Rain = 0
KPFS 180245Z 18004KT 04/M06 A3007 RMK A01 T00411058  RH  049%=      5-min Rain = 0
KPFS 180250Z 18004KT 04/M06 A3007 RMK A01 T00361057  RH  051%=      5-min Rain = 0
KPFS 180255Z 17004KT 04/M06 A3007 RMK A01 T00351056  RH  051%=      5-min Rain = 0
KPFS 180300Z 17004KT 04/M06 A3006 RMK A01 T00381056  RH  051%=      5-min Rain = 0
KPFS 180305Z 17005KT 04/M05 A3006 RMK A01 T00411054  RH  050%=      5-min Rain = 0
KPFS 180310Z 16006KT 04/M05 A3006 RMK A01 T00411053  RH  050%=      5-min Rain = 0
KPFS 180315Z 18007KT 05/M05 A3006 RMK A01 T00481050  RH  049%=      5-min Rain = 0
KPFS 180320Z 16006KT 04/M05 A3006 RMK A01 T00421051  RH  051%=      5-min Rain = 0
KPFS 180325Z 18006KT 04/M05 A3006 RMK A01 T00411051  RH  051%=      5-min Rain = 0
KPFS 180330Z 18006KT 04/M05 A3006 RMK A01 T00411051  RH  051%=      5-min Rain = 0
KPFS 180335Z 17006KT 04/M05 A3005 RMK A01 T00381051  RH  052%=      5-min Rain = 0
KPFS 180340Z 17006KT 03/M05 A3005 RMK A01 T00341051  RH  054%=      5-min Rain = 0
KPFS 180345Z 17006KT 03/M05 A3005 RMK A01 T00341050  RH  054%=      5-min Rain = 0
KPFS 180350Z 19005KT 04/M05 A3005 RMK A01 T00371049  RH  053%=      5-min Rain = 0
KPFS 180355Z 18005KT 04/M05 A3005 RMK A01 T00361049  RH  054%=      5-min Rain = 0
KPFS 180400Z 19006KT 03/M05 A3005 RMK A01 T00341048  RH  055%=      5-min Rain = 0
KPFS 180405Z 19006KT 04/M05 A3005 RMK A01 T00361047  RH  055%=      5-min Rain = 0
KPFS 180410Z 18006KT 04/M05 A3004 RMK A01 T00371046  RH  055%=      5-min Rain = 0
KPFS 180415Z 19004KT 04/M05 A3004 RMK A01 T00361047  RH  055%=      5-min Rain = 0
KPFS 180420Z 18005KT 04/M05 A3004 RMK A01 T00361047  RH  055%=      5-min Rain = 0
KPFS 180425Z 19004KT 04/M05 A3004 RMK A01 T00371047  RH  054%=      5-min Rain = 0
KPFS 180430Z 18006KT 04/M05 A3004 RMK A01 T00371047  RH  054%=      5-min Rain = 0
KPFS 180435Z 17007KT 03/M05 A3003 RMK A01 T00341047  RH  055%=      5-min Rain = 0
KPFS 180440Z 17006KT 03/M05 A3003 RMK A01 T00301047  RH  057%=      5-min Rain = 0
KPFS 180445Z 16008KT 03/M05 A3003 RMK A01 T00321046  RH  057%=      5-min Rain = 0
KPFS 180450Z 15008KT 03/M05 A3002 RMK A01 T00331047  RH  056%=      5-min Rain = 0
KPFS 180455Z 16009KT 04/M05 A3002 RMK A01 T00361046  RH  055%=      5-min Rain = 0
KPFS 180500Z 16007KT 04/M05 A3002 RMK A01 T00361046  RH  055%=      5-min Rain = 0
KPFS 180505Z 16007KT 03/M05 A3002 RMK A01 T00301046  RH  058%=      5-min Rain = 0
KPFS 180510Z 16006KT 03/M05 A3002 RMK A01 T00281047  RH  058%=      5-min Rain = 0
KPFS 180515Z 16006KT 03/M05 A3001 RMK A01 T00271047  RH  058%=      5-min Rain = 0
KPFS 180520Z 15007KT 03/M05 A3001 RMK A01 T00251046  RH  060%=      5-min Rain = 0
KPFS 180525Z 16008KT 03/M05 A3001 RMK A01 T00271046  RH  059%=      5-min Rain = 0
KPFS 180530Z 17006KT 03/M05 A3001 RMK A01 T00271046  RH  059%=      5-min Rain = 0
KPFS 180535Z 17006KT 03/M05 A3001 RMK A01 T00281046  RH  058%=      5-min Rain = 0
KPFS 180540Z 15006KT 03/M05 A3001 RMK A01 T00251047  RH  059%=      5-min Rain = 0
KPFS 180545Z 16006KT 03/M05 A30 RMK A01 T00251046  RH  059%=      5-min Rain = 0
KPFS 180550Z 15007KT 03/M05 A30 RMK A01 T00271046  RH  059%=      5-min Rain = 0
KPFS 180555Z 16007KT 03/M05 A30 RMK A01 T00261046  RH  059%=      5-min Rain = 0

Page generated in 0.0088 seconds.